createdAt,value
2018-02-24T00:01:04.320Z,60.29
2018-02-24T00:03:31.890Z,60.50
2018-02-24T00:05:59.435Z,60.40
2018-02-24T00:08:26.961Z,60.30
2018-02-24T00:10:54.455Z,60.40
2018-02-24T00:13:22.012Z,60.60
2018-02-24T00:15:49.503Z,60.35
2018-02-24T00:18:17.016Z,59.96
2018-02-24T00:20:44.584Z,60.36
2018-02-24T00:23:12.099Z,60.34
2018-02-24T00:25:39.627Z,60.31
2018-02-24T00:28:07.151Z,60.01
2018-02-24T00:30:34.663Z,60.32
2018-02-24T00:33:02.292Z,59.98
2018-02-24T00:35:29.783Z,60.20
2018-02-24T00:37:57.299Z,60.25
2018-02-24T00:40:24.840Z,60.25
2018-02-24T00:42:52.418Z,59.92
2018-02-24T00:45:19.910Z,60.06
2018-02-24T00:47:47.425Z,59.93
2018-02-24T00:50:14.912Z,59.96
2018-02-24T00:52:42.419Z,60.29
2018-02-24T00:55:10.133Z,59.95
2018-02-24T00:57:37.644Z,59.53
2018-02-24T01:00:05.311Z,59.87
2018-02-24T01:02:32.823Z,59.90
2018-02-24T01:05:00.323Z,59.91
2018-02-24T01:07:27.827Z,59.31
2018-02-24T01:09:55.371Z,59.70
2018-02-24T01:12:22.868Z,59.54
2018-02-24T01:14:50.386Z,59.51
2018-02-24T01:17:17.872Z,59.72
2018-02-24T01:19:45.404Z,59.78
2018-02-24T01:22:12.916Z,59.91
2018-02-24T01:24:40.551Z,60.05
2018-02-24T01:27:08.060Z,59.89
2018-02-24T01:29:35.605Z,59.66
2018-02-24T01:32:03.117Z,59.56
2018-02-24T01:34:31.592Z,59.77
2018-02-24T01:36:59.147Z,59.62
2018-02-24T01:39:26.704Z,59.42
2018-02-24T01:41:54.232Z,59.62
2018-02-24T01:44:21.744Z,59.51
2018-02-24T01:46:49.260Z,59.47
2018-02-24T01:49:16.947Z,59.60
2018-02-24T01:51:44.439Z,59.45
2018-02-24T01:54:12.063Z,59.97
2018-02-24T01:56:39.563Z,59.92
2018-02-24T01:59:07.089Z,60.13
2018-02-24T02:01:35.527Z,60.04
2018-02-24T02:04:03.038Z,59.95
2018-02-24T02:06:30.574Z,60.41
2018-02-24T02:08:58.143Z,60.12
2018-02-24T02:11:25.704Z,60.28
2018-02-24T02:13:53.224Z,60.56
2018-02-24T02:16:20.715Z,60.33
2018-02-24T02:18:48.223Z,60.18
2018-02-24T02:21:15.711Z,60.44
2018-02-24T02:23:43.240Z,59.97
2018-02-24T02:26:10.755Z,60.12
2018-02-24T02:28:38.267Z,60.01
2018-02-24T02:31:05.764Z,60.18
2018-02-24T02:33:33.284Z,60.25
2018-02-24T02:36:00.900Z,60.31
2018-02-24T02:38:28.416Z,60.64
2018-02-24T02:40:55.919Z,60.83
2018-02-24T02:43:23.461Z,61.03
2018-02-24T02:45:50.980Z,60.61
2018-02-24T02:48:18.471Z,61.09
2018-02-24T02:50:45.999Z,60.60
2018-02-24T02:53:13.493Z,61.03
2018-02-24T02:55:41.056Z,60.92
2018-02-24T02:58:08.550Z,60.92
2018-02-24T03:00:36.090Z,60.71
2018-02-24T03:03:03.592Z,61.14
2018-02-24T03:05:31.200Z,60.81
2018-02-24T03:07:58.715Z,60.96
2018-02-24T03:10:26.319Z,61.42
2018-02-24T03:12:53.811Z,60.93
2018-02-24T03:15:21.327Z,60.88
2018-02-24T03:17:48.811Z,61.21
2018-02-24T03:20:16.368Z,61.33
2018-02-24T03:22:43.903Z,60.99
2018-02-24T03:25:11.420Z,60.91
2018-02-24T03:27:38.911Z,60.93
2018-02-24T03:30:06.445Z,61.10
2018-02-24T03:32:34.026Z,60.93
2018-02-24T03:35:01.572Z,61.42
2018-02-24T03:37:29.059Z,61.26
2018-02-24T03:39:56.663Z,60.77
2018-02-24T03:42:24.401Z,61.09
2018-02-24T03:44:51.919Z,60.92
2018-02-24T03:47:19.458Z,60.80
2018-02-24T03:49:46.963Z,60.96
2018-02-24T03:52:14.479Z,60.63
2018-02-24T03:54:41.993Z,60.92
2018-02-24T03:57:09.487Z,61.06
2018-02-24T03:59:37.095Z,60.56
2018-02-24T04:02:04.667Z,60.43
2018-02-24T04:04:32.184Z,60.67
2018-02-24T04:06:59.672Z,60.53
2018-02-24T04:09:27.235Z,60.77
2018-02-24T04:11:54.723Z,60.79
2018-02-24T04:14:22.285Z,60.60
2018-02-24T04:16:50.719Z,61.03
2018-02-24T04:19:18.295Z,60.52
2018-02-24T04:21:45.812Z,60.50
2018-02-24T04:24:13.423Z,60.68
2018-02-24T04:26:40.956Z,61.03
2018-02-24T04:29:08.531Z,61.67
2018-02-24T04:31:36.055Z,61.74
2018-02-24T04:34:03.548Z,61.82
2018-02-24T04:36:31.106Z,61.62
2018-02-24T04:38:58.671Z,61.89
2018-02-24T04:41:26.237Z,62.41
2018-02-24T04:43:53.755Z,62.60
2018-02-24T04:46:21.265Z,63.03
2018-02-24T04:48:48.808Z,63.42
2018-02-24T04:51:16.327Z,64.00
2018-02-24T04:53:44.827Z,63.51
2018-02-24T04:56:12.407Z,63.67
2018-02-24T04:58:39.967Z,64.21
2018-02-24T05:01:07.526Z,63.92
2018-02-24T05:03:35.027Z,64.30
2018-02-24T05:06:02.649Z,64.72
2018-02-24T05:08:30.143Z,65.24
2018-02-24T05:10:57.664Z,64.85
2018-02-24T05:13:25.196Z,65.56
2018-02-24T05:15:52.703Z,65.70
2018-02-24T05:18:20.236Z,66.03
2018-02-24T05:20:47.747Z,66.33
2018-02-24T05:23:15.477Z,66.23
2018-02-24T05:25:43.020Z,66.23
2018-02-24T05:28:10.515Z,67.14
2018-02-24T05:30:38.043Z,67.07
2018-02-24T05:33:05.540Z,67.34
2018-02-24T05:35:34.085Z,67.77
2018-02-24T05:38:01.580Z,67.68
2018-02-24T05:40:29.100Z,68.38
2018-02-24T05:42:56.658Z,68.11
2018-02-24T05:45:24.221Z,68.36
2018-02-24T05:47:51.776Z,68.22
2018-02-24T05:50:19.303Z,67.88
2018-02-24T05:52:46.896Z,68.14
2018-02-24T05:55:14.391Z,68.14
2018-02-24T05:57:41.923Z,68.04
2018-02-24T06:00:09.590Z,67.76
2018-02-24T06:02:37.166Z,68.16
2018-02-24T06:05:04.631Z,68.28
2018-02-24T06:07:32.282Z,68.01
2018-02-24T06:09:59.784Z,68.54
2018-02-24T06:12:27.338Z,68.77
2018-02-24T06:14:54.834Z,68.61
2018-02-24T06:17:22.396Z,68.66
2018-02-24T06:19:49.967Z,68.92
2018-02-24T06:22:17.484Z,69.04
2018-02-24T06:24:44.984Z,68.94
2018-02-24T06:27:12.647Z,68.65
2018-02-24T06:29:40.144Z,68.64
2018-02-24T06:32:07.655Z,68.61
2018-02-24T06:34:35.167Z,69.11
2018-02-24T06:37:02.683Z,69.22
2018-02-24T06:39:30.240Z,69.27
2018-02-24T06:41:57.788Z,69.27
2018-02-24T06:44:25.305Z,69.13
2018-02-24T06:46:52.825Z,68.98
2018-02-24T06:49:20.334Z,68.79
2018-02-24T06:51:47.876Z,68.37
2018-02-24T06:54:15.386Z,68.38
2018-02-24T06:56:42.895Z,68.29
2018-02-24T06:59:10.392Z,68.32
2018-02-24T07:01:37.903Z,68.12
2018-02-24T07:04:05.416Z,67.84
2018-02-24T07:06:32.932Z,67.63
2018-02-24T07:09:00.422Z,67.78
2018-02-24T07:11:27.937Z,67.84
2018-02-24T07:13:55.432Z,67.45
2018-02-24T07:16:23.003Z,67.21
2018-02-24T07:18:50.510Z,67.09
2018-02-24T07:21:18.027Z,66.75
2018-02-24T07:23:45.527Z,67.08
2018-02-24T07:26:13.095Z,66.84
2018-02-24T07:28:40.607Z,66.76
2018-02-24T07:31:08.116Z,66.76
2018-02-24T07:33:35.632Z,65.94
2018-02-24T07:36:03.280Z,66.20
2018-02-24T07:38:30.806Z,65.93
2018-02-24T07:40:58.304Z,65.84
2018-02-24T07:43:25.819Z,65.76
2018-02-24T07:45:53.340Z,65.26
2018-02-24T07:48:20.880Z,65.29
2018-02-24T07:50:48.480Z,64.78
2018-02-24T07:53:16.000Z,64.92
2018-02-24T07:55:43.556Z,65.09
2018-02-24T07:58:11.099Z,65.58
2018-02-24T08:00:38.592Z,64.69
2018-02-24T08:03:06.137Z,64.81
2018-02-24T08:05:33.623Z,64.20
2018-02-24T08:08:01.147Z,64.64
2018-02-24T08:10:28.645Z,64.23
2018-02-24T08:12:56.160Z,64.72
2018-02-24T08:15:23.652Z,64.02
2018-02-24T08:17:51.167Z,63.76
2018-02-24T08:20:18.659Z,63.15
2018-02-24T08:22:46.191Z,63.02
2018-02-24T08:25:13.687Z,63.74
2018-02-24T08:27:41.317Z,63.82
2018-02-24T08:30:08.848Z,63.25
2018-02-24T08:32:36.463Z,63.45
2018-02-24T08:35:04.002Z,63.36
2018-02-24T08:37:31.515Z,63.48
2018-02-24T08:39:59.007Z,62.56
2018-02-24T08:42:26.573Z,62.37
2018-02-24T08:44:54.131Z,62.61
2018-02-24T08:47:21.698Z,62.15
2018-02-24T08:49:49.187Z,62.31
2018-02-24T08:52:16.704Z,62.24
2018-02-24T08:54:44.227Z,62.30
2018-02-24T08:57:11.735Z,62.07
2018-02-24T08:59:39.253Z,61.57
2018-02-24T09:02:06.840Z,61.50
2018-02-24T09:04:34.415Z,61.85
2018-02-24T09:07:01.927Z,61.36
2018-02-24T09:09:29.532Z,60.82
2018-02-24T09:11:57.073Z,59.87
2018-02-24T09:14:24.643Z,60.01
2018-02-24T09:16:52.138Z,59.60
2018-02-24T09:19:19.683Z,59.92
2018-02-24T09:21:47.175Z,60.13
2018-02-24T09:24:14.797Z,60.41
2018-02-24T09:26:42.288Z,60.28
2018-02-24T09:29:09.815Z,60.33
2018-02-24T09:31:37.311Z,60.47
2018-02-24T09:34:04.911Z,60.09
2018-02-24T09:36:32.473Z,59.74
2018-02-24T09:38:59.989Z,59.46
2018-02-24T09:41:27.479Z,60.27
2018-02-24T09:43:54.986Z,61.24
2018-02-24T09:46:22.476Z,61.21
2018-02-24T09:48:50.063Z,60.67
2018-02-24T09:51:17.556Z,60.28
2018-02-24T09:53:45.086Z,59.95
2018-02-24T09:56:12.668Z,59.04
2018-02-24T09:58:40.257Z,58.39
2018-02-24T10:01:07.799Z,57.79
2018-02-24T10:03:35.354Z,57.35
2018-02-24T10:06:02.855Z,57.59
2018-02-24T10:08:30.367Z,57.88
2018-02-24T10:10:57.925Z,58.26
2018-02-24T10:13:25.476Z,57.64
2018-02-24T10:15:53.044Z,57.59
2018-02-24T10:18:20.599Z,57.94
2018-02-24T10:20:48.160Z,57.61
2018-02-24T10:23:15.720Z,57.31
2018-02-24T10:25:43.258Z,57.43
2018-02-24T10:28:10.790Z,56.35
2018-02-24T10:30:38.312Z,56.42
2018-02-24T10:33:05.940Z,56.18
2018-02-24T10:35:33.471Z,57.11
2018-02-24T10:38:00.974Z,56.60
2018-02-24T10:40:28.511Z,56.08
2018-02-24T10:42:56.002Z,57.03
2018-02-24T10:45:23.518Z,56.53
2018-02-24T10:47:51.101Z,55.33
2018-02-24T10:50:18.655Z,55.36
2018-02-24T10:52:46.155Z,54.30
2018-02-24T10:55:13.684Z,54.47
2018-02-24T10:57:41.180Z,54.56
2018-02-24T11:00:08.705Z,54.07
2018-02-24T11:02:36.196Z,53.51
2018-02-24T11:05:03.711Z,51.70
2018-02-24T11:07:31.224Z,51.13
2018-02-24T11:09:58.734Z,51.95
2018-02-24T11:12:26.220Z,50.47
2018-02-24T11:14:53.842Z,49.75
2018-02-24T11:17:21.335Z,49.18
2018-02-24T11:19:48.852Z,49.99
2018-02-24T11:22:16.344Z,50.34
2018-02-24T11:24:43.887Z,50.25
2018-02-24T11:27:11.388Z,49.87
2018-02-24T11:29:38.997Z,49.95
2018-02-24T11:32:06.487Z,49.15
2018-02-24T11:34:34.118Z,49.67
2018-02-24T11:37:01.672Z,49.69
2018-02-24T11:39:34.720Z,49.00
2018-02-24T11:42:02.242Z,49.18
2018-02-24T11:44:29.788Z,49.73
2018-02-24T11:46:57.344Z,46.90
2018-02-24T11:49:24.861Z,46.68
2018-02-24T11:51:52.456Z,47.33
2018-02-24T11:54:20.056Z,48.08
2018-02-24T11:56:47.555Z,47.04
2018-02-24T11:59:15.108Z,47.36
2018-02-24T12:01:42.604Z,47.94
2018-02-24T12:04:10.119Z,47.99
2018-02-24T12:06:37.612Z,46.78
2018-02-24T12:09:05.124Z,45.58
2018-02-24T12:11:32.614Z,46.43
2018-02-24T12:14:00.117Z,46.22
2018-02-24T12:16:27.668Z,45.22
2018-02-24T12:18:55.219Z,45.68
2018-02-24T12:21:22.772Z,45.34
2018-02-24T12:23:50.271Z,44.72
2018-02-24T12:26:17.934Z,43.51
2018-02-24T12:28:45.421Z,43.71
2018-02-24T12:31:13.120Z,42.80
2018-02-24T12:33:40.620Z,43.36
2018-02-24T12:36:08.137Z,42.22
2018-02-24T12:38:35.627Z,42.43
2018-02-24T12:41:03.135Z,42.68
2018-02-24T12:43:30.625Z,43.41
2018-02-24T12:45:58.164Z,44.07
2018-02-24T12:48:25.662Z,43.56
2018-02-24T12:50:53.222Z,42.90
2018-02-24T12:53:20.707Z,43.57
2018-02-24T12:55:48.223Z,43.32
2018-02-24T12:58:15.759Z,43.24
2018-02-24T13:00:43.268Z,44.53
2018-02-24T13:03:10.780Z,44.08
2018-02-24T13:05:38.296Z,43.98
2018-02-24T13:08:05.788Z,43.30
2018-02-24T13:10:33.317Z,42.03
2018-02-24T13:13:00.929Z,36.71
2018-02-24T13:15:28.439Z,36.05
2018-02-24T13:17:55.933Z,36.21
2018-02-24T13:20:23.487Z,34.75
2018-02-24T13:22:50.993Z,32.90
2018-02-24T13:25:18.550Z,32.58
2018-02-24T13:27:46.021Z,30.64
2018-02-24T13:30:13.536Z,32.37
2018-02-24T13:32:41.039Z,33.14
2018-02-24T13:35:08.570Z,29.95
2018-02-24T13:37:36.088Z,27.08
2018-02-24T13:40:03.627Z,27.63
2018-02-24T13:42:31.219Z,25.21
2018-02-24T13:44:58.779Z,25.72
2018-02-24T13:47:26.292Z,25.18
2018-02-24T13:49:53.784Z,25.64
2018-02-24T13:52:21.292Z,23.40
2018-02-24T13:54:48.783Z,22.97
2018-02-24T13:57:16.377Z,21.98
2018-02-24T13:59:43.951Z,25.12
2018-02-24T14:02:11.484Z,22.34
2018-02-24T14:04:39.028Z,20.96
2018-02-24T14:07:06.543Z,22.26
2018-02-24T14:09:34.039Z,21.30
2018-02-24T14:12:01.716Z,19.93
2018-02-24T14:14:29.294Z,17.72
2018-02-24T14:16:56.840Z,18.04
2018-02-24T14:19:24.334Z,17.72
2018-02-24T14:21:51.981Z,16.35
2018-02-24T14:24:19.533Z,16.94
2018-02-24T14:26:47.051Z,17.09
2018-02-24T14:29:14.573Z,16.92
2018-02-24T14:31:42.128Z,16.85
2018-02-24T14:34:09.644Z,19.76
2018-02-24T14:36:37.235Z,18.69
2018-02-24T14:39:04.730Z,17.04
2018-02-24T14:41:32.245Z,16.44
2018-02-24T14:43:59.745Z,17.04
2018-02-24T14:46:27.283Z,20.01
2018-02-24T14:48:54.796Z,21.48
2018-02-24T14:51:22.310Z,17.56
2018-02-24T14:53:49.807Z,17.54
2018-02-24T14:56:17.342Z,16.94
2018-02-24T14:58:44.868Z,15.99
2018-02-24T15:01:12.387Z,16.95
2018-02-24T15:03:39.879Z,16.94
2018-02-24T15:06:07.392Z,15.89
2018-02-24T15:08:34.904Z,15.47
2018-02-24T15:11:02.424Z,17.09
2018-02-24T15:13:30.003Z,16.19
2018-02-24T15:15:57.540Z,16.31
2018-02-24T15:18:25.044Z,16.64
2018-02-24T15:20:52.572Z,15.89
2018-02-24T15:23:20.068Z,16.61
2018-02-24T15:25:47.571Z,16.14
2018-02-24T15:28:15.108Z,17.47
2018-02-24T15:30:42.609Z,16.61
2018-02-24T15:33:10.127Z,16.71
2018-02-24T15:35:37.655Z,17.39
2018-02-24T15:38:05.197Z,17.12
2018-02-24T15:40:32.760Z,16.06
2018-02-24T15:43:00.281Z,16.68
2018-02-24T15:45:27.784Z,18.14
2018-02-24T15:47:55.344Z,17.62
2018-02-24T15:50:22.831Z,18.07
2018-02-24T15:52:51.198Z,21.65
2018-02-24T15:55:18.723Z,24.61
2018-02-24T15:57:46.287Z,27.83
2018-02-24T16:00:13.852Z,27.58
2018-02-24T16:02:41.371Z,29.17
2018-02-24T16:05:08.979Z,30.35
2018-02-24T16:07:36.676Z,30.70
2018-02-24T16:10:04.191Z,31.72
2018-02-24T16:12:31.704Z,32.37
2018-02-24T16:14:59.216Z,33.48
2018-02-24T16:17:26.737Z,34.00
2018-02-24T16:19:54.230Z,35.10
2018-02-24T16:22:21.739Z,35.90
2018-02-24T16:24:49.233Z,35.61
2018-02-24T16:27:16.763Z,37.40
2018-02-24T16:29:44.255Z,36.22
2018-02-24T16:32:11.767Z,36.32
2018-02-24T16:34:39.268Z,36.28
2018-02-24T16:37:06.797Z,37.89
2018-02-24T16:39:34.313Z,37.30
2018-02-24T16:42:01.852Z,38.01
2018-02-24T16:44:29.419Z,36.90
2018-02-24T16:46:56.931Z,37.63
2018-02-24T16:49:24.451Z,36.70
2018-02-24T16:51:51.974Z,35.80
2018-02-24T16:54:19.551Z,35.51
2018-02-24T16:56:47.134Z,35.51
2018-02-24T16:59:14.663Z,35.44
2018-02-24T17:01:42.154Z,35.36
2018-02-24T17:04:09.686Z,34.86
2018-02-24T17:06:37.180Z,35.43
2018-02-24T17:09:04.702Z,34.78
2018-02-24T17:11:32.227Z,34.95
2018-02-24T17:13:59.741Z,34.96
2018-02-24T17:16:27.300Z,35.08
2018-02-24T17:18:54.852Z,35.29
2018-02-24T17:21:22.344Z,34.89
2018-02-24T17:23:49.868Z,35.03
2018-02-24T17:26:17.542Z,34.77
2018-02-24T17:28:45.057Z,35.17
2018-02-24T17:31:12.547Z,33.86
2018-02-24T17:33:40.063Z,35.00
2018-02-24T17:36:11.423Z,34.60
2018-02-24T17:38:45.635Z,35.63
2018-02-24T17:41:15.295Z,35.61
2018-02-24T17:43:43.744Z,34.50
2018-02-24T17:46:11.331Z,34.32
2018-02-24T17:48:38.870Z,34.41
2018-02-24T17:51:06.429Z,35.60
2018-02-24T17:53:33.940Z,35.60
2018-02-24T17:56:01.434Z,35.92
2018-02-24T17:58:28.950Z,35.93
2018-02-24T18:00:56.455Z,35.83
2018-02-24T18:03:23.996Z,35.59
2018-02-24T18:05:51.561Z,37.12
2018-02-24T18:08:19.148Z,37.11
2018-02-24T18:10:46.709Z,36.60
2018-02-24T18:13:14.288Z,36.38
2018-02-24T18:15:41.783Z,36.84
2018-02-24T18:18:09.352Z,36.94
2018-02-24T18:20:36.824Z,37.20
2018-02-24T18:23:04.366Z,37.23
2018-02-24T18:25:31.852Z,37.25
2018-02-24T18:27:59.375Z,36.95
2018-02-24T18:30:26.898Z,36.62
2018-02-24T18:32:54.440Z,36.42
2018-02-24T18:35:21.935Z,36.85
2018-02-24T18:37:49.463Z,37.18
2018-02-24T18:40:16.997Z,38.61
2018-02-24T18:42:44.516Z,37.77
2018-02-24T18:45:12.135Z,38.10
2018-02-24T18:47:39.644Z,37.22
2018-02-24T18:50:07.257Z,36.70
2018-02-24T18:52:34.822Z,37.19
2018-02-24T18:55:02.343Z,37.40
2018-02-24T18:57:29.936Z,37.25
2018-02-24T18:59:57.465Z,37.68
2018-02-24T19:02:24.964Z,37.39
2018-02-24T19:04:52.479Z,38.10
2018-02-24T19:07:20.080Z,38.31
2018-02-24T19:09:47.594Z,39.46
2018-02-24T19:12:15.087Z,39.40
2018-02-24T19:14:42.758Z,39.53
2018-02-24T19:17:10.259Z,39.56
2018-02-24T19:19:37.783Z,39.65
2018-02-24T19:22:05.454Z,39.42
2018-02-24T19:24:32.988Z,39.36
2018-02-24T19:27:00.485Z,39.88
2018-02-24T19:29:27.991Z,40.43
2018-02-24T19:31:55.488Z,40.27
2018-02-24T19:34:23.016Z,39.96
2018-02-24T19:36:50.508Z,40.12
2018-02-24T19:39:18.068Z,40.27
2018-02-24T19:41:45.575Z,39.95
2018-02-24T19:44:13.236Z,40.79
2018-02-24T19:46:40.728Z,40.72
2018-02-24T19:49:08.257Z,41.25
2018-02-24T19:51:35.768Z,40.92
2018-02-24T19:54:03.264Z,40.37
2018-02-24T19:56:30.777Z,40.92
2018-02-24T19:58:58.333Z,41.28
2018-02-24T20:01:25.854Z,41.26
2018-02-24T20:03:53.351Z,41.19
2018-02-24T20:06:20.868Z,41.58
2018-02-24T20:08:48.421Z,41.68
2018-02-24T20:11:16.037Z,42.05
2018-02-24T20:13:43.572Z,41.77
2018-02-24T20:16:11.084Z,42.34
2018-02-24T20:18:38.686Z,42.43
2018-02-24T20:21:06.229Z,43.00
2018-02-24T20:23:33.803Z,42.77
2018-02-24T20:26:01.323Z,42.72
2018-02-24T20:28:28.821Z,43.07
2018-02-24T20:30:56.353Z,43.05
2018-02-24T20:33:23.943Z,43.65
2018-02-24T20:35:51.452Z,44.13
2018-02-24T20:38:18.964Z,43.86
2018-02-24T20:40:46.516Z,43.50
2018-02-24T20:43:14.004Z,43.42
2018-02-24T20:45:41.631Z,43.82
2018-02-24T20:48:09.128Z,43.88
2018-02-24T20:50:36.693Z,43.50
2018-02-24T20:53:04.188Z,43.57
2018-02-24T20:55:31.741Z,43.90
2018-02-24T20:57:59.248Z,44.31
2018-02-24T21:00:26.764Z,44.21
2018-02-24T21:02:55.303Z,44.38
2018-02-24T21:05:22.823Z,44.03
2018-02-24T21:07:50.392Z,44.59
2018-02-24T21:10:17.972Z,44.79
2018-02-24T21:12:45.487Z,44.14
2018-02-24T21:15:13.075Z,43.74
2018-02-24T21:17:40.582Z,44.42
2018-02-24T21:20:08.069Z,43.96
2018-02-24T21:22:35.599Z,43.89
2018-02-24T21:25:03.095Z,43.97
2018-02-24T21:27:30.629Z,44.09
2018-02-24T21:29:58.147Z,44.62
2018-02-24T21:32:26.059Z,44.73
2018-02-24T21:34:53.594Z,44.88
2018-02-24T21:37:21.215Z,44.17
2018-02-24T21:39:48.711Z,43.81
2018-02-24T21:42:16.227Z,44.17
2018-02-24T21:44:43.720Z,44.09
2018-02-24T21:47:11.244Z,44.18
2018-02-24T21:49:38.735Z,44.13
2018-02-24T21:52:06.267Z,45.04
2018-02-24T21:54:33.762Z,44.43
2018-02-24T21:57:01.278Z,44.53
2018-02-24T21:59:28.770Z,45.48
2018-02-24T22:01:56.299Z,45.85
2018-02-24T22:04:23.800Z,46.22
2018-02-24T22:06:51.320Z,46.04
2018-02-24T22:09:18.824Z,45.73
2018-02-24T22:11:46.356Z,46.22
2018-02-24T22:14:13.855Z,47.00
2018-02-24T22:16:41.373Z,46.68
2018-02-24T22:19:08.864Z,46.32
2018-02-24T22:21:36.383Z,46.49
2018-02-24T22:24:03.875Z,45.85
2018-02-24T22:26:31.393Z,46.47
2018-02-24T22:28:58.879Z,45.94
2018-02-24T22:31:26.404Z,45.53
2018-02-24T22:33:53.905Z,46.22
2018-02-24T22:36:21.416Z,46.26
2018-02-24T22:38:48.991Z,46.01
2018-02-24T22:41:16.534Z,45.90
2018-02-24T22:43:44.024Z,45.48
2018-02-24T22:46:11.551Z,45.49
2018-02-24T22:48:44.655Z,46.13
2018-02-24T22:51:12.212Z,46.02
2018-02-24T22:53:39.723Z,46.08
2018-02-24T22:56:07.216Z,46.45
2018-02-24T22:58:34.755Z,46.05
2018-02-24T23:01:02.367Z,47.15
2018-02-24T23:03:29.881Z,45.69
2018-02-24T23:05:57.375Z,46.23
2018-02-24T23:08:25.027Z,45.77
2018-02-24T23:10:52.528Z,45.36
2018-02-24T23:13:20.057Z,45.48
2018-02-24T23:15:47.627Z,45.21
2018-02-24T23:18:15.226Z,46.31
2018-02-24T23:20:42.752Z,45.81
2018-02-24T23:23:10.300Z,46.18
2018-02-24T23:25:37.808Z,45.88
2018-02-24T23:28:05.328Z,46.31
2018-02-24T23:30:32.839Z,46.22
2018-02-24T23:33:00.404Z,46.89
2018-02-24T23:35:27.907Z,46.63
2018-02-24T23:37:55.452Z,45.14
2018-02-24T23:40:22.991Z,46.28
2018-02-24T23:42:50.512Z,45.54
2018-02-24T23:45:18.008Z,45.37
2018-02-24T23:47:45.524Z,45.26
2018-02-24T23:50:13.016Z,45.48
2018-02-24T23:52:40.599Z,45.22
2018-02-24T23:55:08.100Z,45.08
2018-02-24T23:57:35.628Z,45.89
